Time;durP1;ratioP1;P1;durP2;ratioP2;P2;SDS_P1;SDS_P2;PMS_P1;PMS_P2;Temp;Humidity;BMP_temperature;BMP_pressure;BME280_temperature;BME280_humidity;BME280_pressure;Samples;Min_cycle;Max_cycle;Signal;HPM_P1;HPM_P2
2023/12/20 00:02:21;;;;;;;5.10;2.83;;;6.50;20.80;;;;;;4944437;28;46643;-77
2023/12/20 00:04:46;;;;;;;4.30;2.60;;;6.50;21.00;;;;;;4943881;28;46394;-78
2023/12/20 00:07:12;;;;;;;4.47;2.50;;;6.50;21.00;;;;;;4946603;28;47457;-79
2023/12/20 00:09:37;;;;;;;5.63;2.70;;;6.50;21.00;;;;;;4947705;28;45930;-79
2023/12/20 00:12:03;;;;;;;4.97;2.80;;;6.50;21.10;;;;;;4948993;28;46293;-80
2023/12/20 00:14:28;;;;;;;4.73;2.80;;;6.50;21.20;;;;;;4942967;28;46476;-79
2023/12/20 00:16:54;;;;;;;5.57;2.93;;;6.50;21.30;;;;;;4924948;28;46345;-78
2023/12/20 00:19:19;;;;;;;3.47;2.63;;;6.50;21.50;;;;;;4942173;28;46464;-78
2023/12/20 00:21:45;;;;;;;4.10;2.20;;;6.40;21.50;;;;;;4924499;28;46750;-78
2023/12/20 00:24:11;;;;;;;5.30;2.63;;;6.50;21.70;;;;;;4942778;28;46501;-78
2023/12/20 00:26:36;;;;;;;4.53;2.53;;;6.40;21.80;;;;;;4941429;28;45854;-78
2023/12/20 00:29:02;;;;;;;5.50;3.30;;;6.40;21.90;;;;;;4941782;28;46110;-77
2023/12/20 00:31:28;;;;;;;5.80;2.73;;;6.40;21.90;;;;;;4942816;28;46427;-78
2023/12/20 00:33:53;;;;;;;4.03;2.27;;;6.40;22.00;;;;;;4941545;28;46665;-78
2023/12/20 00:36:19;;;;;;;5.53;2.57;;;6.40;22.10;;;;;;4940446;28;46498;-78
2023/12/20 00:38:45;;;;;;;4.13;2.37;;;6.40;22.00;;;;;;4942056;28;46577;-79
2023/12/20 00:41:10;;;;;;;4.17;2.33;;;6.40;22.00;;;;;;4944814;28;45751;-79
2023/12/20 00:43:36;;;;;;;4.20;2.43;;;6.50;22.10;;;;;;4945749;28;46579;-78
2023/12/20 00:46:01;;;;;;;3.90;2.37;;;6.50;22.00;;;;;;4929829;28;45957;-79
2023/12/20 00:48:27;;;;;;;3.43;2.33;;;6.50;22.10;;;;;;4947076;28;46134;-78
2023/12/20 00:50:52;;;;;;;3.47;2.20;;;6.50;22.10;;;;;;4948890;28;45817;-78
2023/12/20 00:53:18;;;;;;;3.87;1.90;;;6.50;22.10;;;;;;4945945;28;46726;-78
2023/12/20 00:55:45;;;;;;;2.70;1.77;;;6.50;22.10;;;;;;4947269;28;45870;-80
2023/12/20 00:58:10;;;;;;;3.80;2.27;;;6.50;22.00;;;;;;4927791;28;48414;-79
2023/12/20 01:00:36;;;;;;;3.90;2.10;;;6.60;22.20;;;;;;4945545;28;46946;-80
2023/12/20 01:03:02;;;;;;;3.80;2.20;;;6.60;22.10;;;;;;4953503;28;46349;-78
2023/12/20 01:05:28;;;;;;;3.20;1.80;;;6.50;22.30;;;;;;4951693;28;46311;-78
2023/12/20 01:07:54;;;;;;;2.97;1.80;;;6.50;22.30;;;;;;4927397;28;47267;-79
2023/12/20 01:10:19;;;;;;;3.17;2.17;;;6.50;22.40;;;;;;4942810;28;46494;-78
2023/12/20 01:12:45;;;;;;;3.43;2.17;;;6.50;22.60;;;;;;4946296;28;46656;-77
2023/12/20 01:15:11;;;;;;;3.20;2.20;;;6.50;22.60;;;;;;4945886;28;46612;-78
2023/12/20 01:17:36;;;;;;;2.40;1.67;;;6.50;22.70;;;;;;4942657;28;46513;-78
2023/12/20 01:20:02;;;;;;;3.70;2.07;;;6.50;22.90;;;;;;4942548;28;46819;-78
2023/12/20 01:22:28;;;;;;;3.50;2.00;;;6.50;23.00;;;;;;4945529;28;46479;-78
2023/12/20 01:24:53;;;;;;;4.07;2.20;;;6.40;23.00;;;;;;4942633;28;46478;-79
2023/12/20 01:27:19;;;;;;;3.33;2.20;;;6.50;23.30;;;;;;4944766;28;46564;-78
2023/12/20 01:29:44;;;;;;;3.43;1.90;;;6.40;23.50;;;;;;4944458;28;46538;-78
2023/12/20 01:32:10;;;;;;;2.90;2.03;;;6.50;23.80;;;;;;4943519;28;46294;-78
2023/12/20 01:34:35;;;;;;;2.73;1.63;;;6.50;23.80;;;;;;4945366;28;46838;-78
2023/12/20 01:37:02;;;;;;;3.70;2.13;;;6.50;24.00;;;;;;4944596;28;46575;-78
2023/12/20 01:39:28;;;;;;;2.70;1.67;;;6.40;23.90;;;;;;4927796;28;46451;-78
2023/12/20 01:41:54;;;;;;;3.77;2.03;;;6.50;24.10;;;;;;4944165;28;46528;-78
2023/12/20 01:44:19;;;;;;;3.43;1.70;;;6.50;24.00;;;;;;4931226;28;47978;-78
2023/12/20 01:46:46;;;;;;;3.80;1.67;;;6.50;24.10;;;;;;4946744;28;46443;-78
2023/12/20 01:49:12;;;;;;;3.70;1.87;;;6.50;24.40;;;;;;4930430;28;46143;-78
2023/12/20 01:51:38;;;;;;;2.87;1.37;;;6.50;24.50;;;;;;4948684;28;46507;-79
2023/12/20 01:54:05;;;;;;;3.50;1.57;;;6.40;24.50;;;;;;4947504;28;46457;-79
2023/12/20 01:56:31;;;;;;;2.20;1.50;;;6.50;24.50;;;;;;4945448;28;47307;-80
2023/12/20 01:58:57;;;;;;;3.10;1.97;;;6.50;24.50;;;;;;4946509;28;46431;-78
2023/12/20 02:01:23;;;;;;;2.80;1.33;;;6.40;24.50;;;;;;4950278;28;46435;-79
2023/12/20 02:03:49;;;;;;;1.90;1.40;;;6.40;24.50;;;;;;4948402;28;46160;-80
2023/12/20 02:06:16;;;;;;;2.73;1.77;;;6.40;24.50;;;;;;4948998;28;46378;-78
2023/12/20 02:08:42;;;;;;;2.63;1.30;;;6.40;24.50;;;;;;4942880;28;46540;-77
2023/12/20 02:11:07;;;;;;;2.90;1.50;;;6.40;24.80;;;;;;4942583;28;46490;-79
2023/12/20 02:13:33;;;;;;;2.67;1.60;;;6.40;25.10;;;;;;4944304;28;46562;-78
2023/12/20 02:16:00;;;;;;;3.27;1.53;;;6.30;25.30;;;;;;4925647;28;48470;-79
2023/12/20 02:18:25;;;;;;;2.20;1.57;;;6.30;25.50;;;;;;4943768;28;46413;-80
2023/12/20 02:20:51;;;;;;;2.23;1.20;;;6.30;25.80;;;;;;4944391;28;46328;-78
2023/12/20 02:23:16;;;;;;;2.33;1.40;;;6.30;26.00;;;;;;4927259;28;46667;-79
2023/12/20 02:25:42;;;;;;;2.37;1.37;;;6.30;26.20;;;;;;4944323;28;46589;-78
2023/12/20 02:28:08;;;;;;;2.37;1.50;;;6.40;26.20;;;;;;4925764;28;46577;-78
2023/12/20 02:30:33;;;;;;;2.27;1.43;;;6.50;26.30;;;;;;4943774;28;46519;-79
2023/12/20 02:33:00;;;;;;;2.57;1.77;;;6.50;26.20;;;;;;4941119;28;45958;-78
2023/12/20 02:35:26;;;;;;;2.67;1.50;;;6.60;26.50;;;;;;4943320;28;47277;-78
2023/12/20 02:37:51;;;;;;;2.23;1.30;;;6.70;26.30;;;;;;4940170;28;46493;-77
2023/12/20 02:40:17;;;;;;;6.10;1.40;;;6.70;26.30;;;;;;4941258;28;46438;-80
2023/12/20 02:42:43;;;;;;;2.53;1.63;;;6.80;26.40;;;;;;4924241;28;45930;-79
2023/12/20 02:45:09;;;;;;;2.80;1.47;;;6.80;26.40;;;;;;4942500;28;46538;-79
2023/12/20 02:47:34;;;;;;;2.00;1.13;;;6.80;26.50;;;;;;4943164;28;46138;-78
2023/12/20 02:50:00;;;;;;;2.67;1.50;;;6.80;26.80;;;;;;4926697;28;47756;-79
2023/12/20 02:52:27;;;;;;;3.37;1.80;;;6.80;27.10;;;;;;4943714;28;46703;-78
2023/12/20 02:54:52;;;;;;;2.70;1.43;;;6.80;27.30;;;;;;4941590;28;47438;-78
2023/12/20 02:57:18;;;;;;;3.43;1.90;;;6.80;27.40;;;;;;4941386;28;46757;-78
2023/12/20 02:59:43;;;;;;;1.97;1.37;;;6.70;27.50;;;;;;4943702;28;46530;-78
2023/12/20 03:02:09;;;;;;;2.20;1.43;;;6.70;27.70;;;;;;4943290;28;47027;-78
2023/12/20 03:04:34;;;;;;;4.23;1.50;;;6.70;27.90;;;;;;4924993;28;48258;-78
2023/12/20 03:07:00;;;;;;;2.00;1.30;;;6.70;28.30;;;;;;4941071;28;46550;-79
2023/12/20 03:09:25;;;;;;;3.00;1.50;;;6.70;28.50;;;;;;4943059;28;46605;-79
2023/12/20 03:11:51;;;;;;;2.50;1.70;;;6.70;28.60;;;;;;4943383;28;46125;-79
2023/12/20 03:14:16;;;;;;;2.77;1.67;;;6.70;28.90;;;;;;4942192;28;48210;-78
2023/12/20 03:16:47;;;;;;;2.90;1.80;;;6.60;29.10;;;;;;4939681;28;46723;-80
2023/12/20 03:19:13;;;;;;;4.10;1.70;;;6.60;29.30;;;;;;4942489;28;46815;-78
2023/12/20 03:21:38;;;;;;;2.43;1.60;;;6.50;29.70;;;;;;4942349;28;46557;-77
2023/12/20 03:24:04;;;;;;;2.30;1.50;;;6.50;29.90;;;;;;4939821;28;48489;-80
2023/12/20 03:26:30;;;;;;;3.13;1.80;;;6.40;31.10;;;;;;4940379;28;45871;-78
2023/12/20 03:28:55;;;;;;;3.27;1.53;;;6.30;31.50;;;;;;4926874;28;46416;-78
2023/12/20 03:31:21;;;;;;;2.57;1.60;;;6.30;32.00;;;;;;4940151;28;46378;-79
2023/12/20 03:33:47;;;;;;;3.27;2.13;;;6.30;32.20;;;;;;4942600;28;47173;-79
2023/12/20 03:36:12;;;;;;;2.20;1.50;;;6.20;32.50;;;;;;4947471;28;47664;-80
2023/12/20 03:38:38;;;;;;;2.90;1.70;;;6.20;32.70;;;;;;4953640;28;46448;-79
2023/12/20 03:41:04;;;;;;;5.90;1.83;;;6.20;32.90;;;;;;4955659;28;46788;-80
2023/12/20 03:43:29;;;;;;;2.43;1.70;;;6.20;33.20;;;;;;4950275;28;48022;-79
2023/12/20 03:45:55;;;;;;;3.07;2.07;;;6.20;33.50;;;;;;4945014;28;46531;-79
2023/12/20 03:48:20;;;;;;;2.73;1.73;;;6.20;33.80;;;;;;4947022;28;46426;-79
2023/12/20 03:50:47;;;;;;;3.03;2.07;;;6.20;34.00;;;;;;4946852;28;46533;-79
2023/12/20 03:53:12;;;;;;;2.77;2.00;;;6.10;34.10;;;;;;4946762;28;46619;-80
2023/12/20 03:55:38;;;;;;;3.50;2.40;;;6.10;35.30;;;;;;4948882;28;46520;-79
2023/12/20 03:58:03;;;;;;;3.20;2.30;;;6.10;35.50;;;;;;4950490;28;46709;-78
2023/12/20 04:00:29;;;;;;;3.70;2.43;;;6.10;35.70;;;;;;4940273;28;46601;-79
2023/12/20 04:02:54;;;;;;;3.30;2.30;;;6.10;36.00;;;;;;4942491;28;46649;-77
2023/12/20 04:05:20;;;;;;;4.33;2.30;;;6.10;36.00;;;;;;4939847;28;46433;-78
2023/12/20 04:07:45;;;;;;;2.80;2.20;;;6.10;36.10;;;;;;4941086;28;46901;-79
2023/12/20 04:10:11;;;;;;;10.60;2.53;;;6.10;36.10;;;;;;4940906;28;46590;-79
2023/12/20 04:12:36;;;;;;;3.97;2.77;;;6.20;36.10;;;;;;4941418;28;46411;-78
2023/12/20 04:15:08;;;;;;;3.40;2.20;;;6.10;36.10;;;;;;4942723;28;46837;-78
2023/12/20 04:17:34;;;;;;;6.90;3.00;;;6.10;36.10;;;;;;4943877;28;46354;-79
2023/12/20 04:19:59;;;;;;;4.27;2.70;;;6.10;36.70;;;;;;4944001;28;46931;-78
2023/12/20 04:22:25;;;;;;;3.93;2.57;;;6.20;37.00;;;;;;4944354;28;47117;-78
2023/12/20 04:24:51;;;;;;;4.77;3.20;;;6.10;37.20;;;;;;4944816;28;46676;-78
2023/12/20 04:27:16;;;;;;;4.30;2.70;;;6.10;37.60;;;;;;4942826;28;46561;-77
2023/12/20 04:29:42;;;;;;;3.50;2.70;;;6.10;37.90;;;;;;4944530;28;46909;-77
2023/12/20 04:32:08;;;;;;;5.10;2.77;;;6.00;38.10;;;;;;4944377;28;46791;-79
2023/12/20 04:34:33;;;;;;;3.83;2.83;;;6.10;38.50;;;;;;4925408;28;46497;-79
2023/12/20 04:36:59;;;;;;;5.00;2.80;;;6.10;38.40;;;;;;4941241;28;46517;-80
2023/12/20 04:39:24;;;;;;;5.07;3.10;;;6.10;38.70;;;;;;4927909;28;46457;-79
2023/12/20 04:41:50;;;;;;;5.33;3.33;;;6.10;38.90;;;;;;4925239;28;47972;-79
2023/12/20 04:44:15;;;;;;;6.87;3.77;;;6.10;39.00;;;;;;4936446;28;45909;-80
2023/12/20 04:46:41;;;;;;;4.40;3.57;;;6.10;39.10;;;;;;4943735;28;46497;-79
2023/12/20 04:49:07;;;;;;;5.53;3.20;;;6.10;39.30;;;;;;4943635;28;46810;-76
2023/12/20 04:51:35;;;;;;;5.90;3.60;;;6.00;39.60;;;;;;4940287;28;46648;-78
2023/12/20 04:54:02;;;;;;;5.50;3.50;;;6.00;39.90;;;;;;4943003;28;46711;-79
2023/12/20 04:56:28;;;;;;;6.40;3.80;;;6.00;40.00;;;;;;4942887;28;45874;-79
2023/12/20 04:58:54;;;;;;;5.60;3.40;;;6.00;40.20;;;;;;4942810;28;46594;-78
2023/12/20 05:01:20;;;;;;;7.30;4.63;;;6.00;40.40;;;;;;4940722;28;48214;-78
2023/12/20 05:03:46;;;;;;;5.70;4.30;;;6.00;40.70;;;;;;4944155;28;46466;-79
2023/12/20 05:06:11;;;;;;;8.00;4.30;;;6.00;40.90;;;;;;4941116;28;46168;-78
2023/12/20 05:08:37;;;;;;;5.70;4.10;;;6.00;41.10;;;;;;4943426;28;46526;-78
2023/12/20 05:11:03;;;;;;;6.80;4.10;;;6.00;41.10;;;;;;4942416;28;51535;-78
2023/12/20 05:13:28;;;;;;;7.83;4.40;;;6.00;41.30;;;;;;4943119;28;46514;-79
2023/12/20 05:15:54;;;;;;;6.37;4.07;;;5.90;41.70;;;;;;4945423;28;46527;-79
2023/12/20 05:18:21;;;;;;;6.90;3.80;;;5.90;41.90;;;;;;4945000;28;48637;-80
2023/12/20 05:20:46;;;;;;;6.97;3.93;;;5.90;42.80;;;;;;4929962;28;48055;-78
2023/12/20 05:23:13;;;;;;;5.17;4.00;;;5.90;42.80;;;;;;4930459;28;46479;-80
2023/12/20 05:25:39;;;;;;;5.43;4.03;;;5.90;42.70;;;;;;4946584;28;46605;-79
2023/12/20 05:28:04;;;;;;;7.80;3.70;;;5.90;42.90;;;;;;4946133;28;46973;-81
2023/12/20 05:30:30;;;;;;;6.53;4.03;;;5.90;43.00;;;;;;4931122;28;46882;-78
2023/12/20 05:32:56;;;;;;;6.83;3.90;;;5.90;43.20;;;;;;4950202;28;46173;-79
2023/12/20 05:35:23;;;;;;;5.53;3.90;;;5.90;43.30;;;;;;4942365;28;47091;-79
2023/12/20 05:37:49;;;;;;;7.37;4.20;;;5.90;43.50;;;;;;4923266;28;46499;-78
2023/12/20 05:40:14;;;;;;;5.20;4.00;;;5.90;43.50;;;;;;4939779;28;48714;-79
2023/12/20 05:42:40;;;;;;;5.87;4.03;;;5.90;43.70;;;;;;4943632;28;46451;-79
2023/12/20 05:45:06;;;;;;;6.13;3.10;;;5.90;43.70;;;;;;4938675;28;46387;-79
2023/12/20 05:47:32;;;;;;;4.90;3.83;;;5.80;43.90;;;;;;4940114;28;46543;-77
2023/12/20 05:49:57;;;;;;;5.47;3.30;;;5.80;44.00;;;;;;4939297;28;48151;-79
2023/12/20 05:52:23;;;;;;;6.37;3.73;;;5.80;44.00;;;;;;4941602;28;46435;-79
2023/12/20 05:54:48;;;;;;;5.00;3.40;;;5.70;44.30;;;;;;4944019;28;46430;-78
2023/12/20 05:57:14;;;;;;;5.63;3.60;;;5.70;44.50;;;;;;4944144;28;46152;-78
2023/12/20 05:59:39;;;;;;;5.40;3.27;;;5.70;44.70;;;;;;4945105;28;46922;-78
2023/12/20 06:02:05;;;;;;;6.47;4.03;;;5.70;44.40;;;;;;4944293;28;46720;-78
2023/12/20 06:04:31;;;;;;;6.93;3.70;;;5.70;44.70;;;;;;4943121;28;47555;-79
2023/12/20 06:06:56;;;;;;;6.97;4.40;;;5.70;44.70;;;;;;4941934;28;45846;-81
2023/12/20 06:09:22;;;;;;;6.50;4.30;;;5.70;44.80;;;;;;4945501;28;47132;-79
2023/12/20 06:11:47;;;;;;;5.10;3.50;;;5.60;44.70;;;;;;4947725;28;46643;-79
2023/12/20 06:14:13;;;;;;;6.60;4.40;;;5.70;44.60;;;;;;4942390;28;46435;-78
2023/12/20 06:16:39;;;;;;;6.20;4.03;;;5.70;44.80;;;;;;4942829;28;46725;-79
2023/12/20 06:19:04;;;;;;;5.00;3.90;;;5.60;44.70;;;;;;4942398;28;46705;-78
2023/12/20 06:21:30;;;;;;;6.60;3.60;;;5.60;45.00;;;;;;4939964;28;46522;-80
2023/12/20 06:23:55;;;;;;;5.93;3.87;;;5.60;45.20;;;;;;4943433;28;46188;-79
2023/12/20 06:26:21;;;;;;;6.10;4.00;;;5.60;45.20;;;;;;4941246;28;46553;-79
2023/12/20 06:28:46;;;;;;;5.30;3.43;;;5.60;45.20;;;;;;4939774;28;47946;-79
2023/12/20 06:31:12;;;;;;;6.20;4.07;;;5.60;45.10;;;;;;4940193;28;46366;-79
2023/12/20 06:33:40;;;;;;;4.30;3.20;;;5.60;45.20;;;;;;4943244;28;46369;-79
2023/12/20 06:36:06;;;;;;;9.53;5.40;;;5.60;45.20;;;;;;4945410;28;46928;-81
2023/12/20 06:38:31;;;;;;;5.17;3.43;;;5.60;45.20;;;;;;4942439;28;47009;-79
2023/12/20 06:40:58;;;;;;;6.03;3.20;;;5.60;45.40;;;;;;4941764;28;46767;-80
2023/12/20 06:43:24;;;;;;;3.60;2.67;;;5.50;45.50;;;;;;4941891;28;47046;-80
2023/12/20 06:45:49;;;;;;;3.50;2.50;;;5.50;45.60;;;;;;4943979;28;47163;-79
2023/12/20 06:48:15;;;;;;;3.30;2.27;;;5.50;45.80;;;;;;4940358;28;47569;-80
2023/12/20 06:50:41;;;;;;;3.30;2.33;;;5.50;45.60;;;;;;4943710;28;46423;-79
2023/12/20 06:53:07;;;;;;;4.27;2.40;;;5.50;45.90;;;;;;4943197;28;46540;-79
2023/12/20 06:55:34;;;;;;;4.87;2.60;;;5.60;45.90;;;;;;4940893;28;46724;-78
2023/12/20 06:58:01;;;;;;;4.50;2.77;;;5.60;45.80;;;;;;4940582;28;48023;-80
2023/12/20 07:00:26;;;;;;;3.87;2.83;;;5.60;45.90;;;;;;4939309;28;46590;-78
2023/12/20 07:02:52;;;;;;;3.80;2.53;;;5.60;45.80;;;;;;4944402;28;46388;-80
2023/12/20 07:05:19;;;;;;;5.40;2.83;;;5.70;45.80;;;;;;4944383;28;46303;-79
2023/12/20 07:07:46;;;;;;;3.80;2.33;;;5.70;46.90;;;;;;4947435;28;46897;-79
2023/12/20 07:10:12;;;;;;;3.33;2.37;;;5.70;45.70;;;;;;4945764;28;46525;-79
2023/12/20 07:12:38;;;;;;;2.97;2.10;;;5.60;45.80;;;;;;4946373;28;46780;-80
2023/12/20 07:15:05;;;;;;;4.13;2.23;;;5.60;45.90;;;;;;4947387;28;46506;-81
2023/12/20 07:17:32;;;;;;;4.23;2.83;;;5.60;46.00;;;;;;4927227;28;49173;-80
2023/12/20 07:19:58;;;;;;;5.47;3.27;;;5.70;46.20;;;;;;4945447;28;46791;-79
2023/12/20 07:22:24;;;;;;;3.73;2.40;;;5.60;46.20;;;;;;4932609;28;46466;-80
2023/12/20 07:24:52;;;;;;;3.50;2.10;;;5.60;46.30;;;;;;4944032;28;46660;-78
2023/12/20 07:27:17;;;;;;;2.90;1.70;;;5.60;46.30;;;;;;4939692;28;46743;-80
2023/12/20 07:29:43;;;;;;;2.87;2.10;;;5.60;46.40;;;;;;4940681;28;46744;-81
2023/12/20 07:32:09;;;;;;;3.30;2.03;;;5.60;46.50;;;;;;4937067;28;46770;-78
2023/12/20 07:34:34;;;;;;;3.50;2.30;;;5.60;46.60;;;;;;4935039;28;46787;-80
2023/12/20 07:37:00;;;;;;;2.63;1.73;;;5.70;46.50;;;;;;4937553;28;47770;-80
2023/12/20 07:39:25;;;;;;;2.80;1.80;;;5.60;46.50;;;;;;4939659;28;46879;-78
2023/12/20 07:41:51;;;;;;;3.53;2.03;;;5.60;46.50;;;;;;4935749;28;46739;-79
2023/12/20 07:44:16;;;;;;;4.20;2.80;;;5.60;46.70;;;;;;4936837;28;46901;-80
2023/12/20 07:46:42;;;;;;;2.67;1.63;;;5.60;46.90;;;;;;4937944;28;46474;-79
2023/12/20 07:49:08;;;;;;;3.70;1.83;;;5.60;47.00;;;;;;4938739;28;45912;-80
2023/12/20 07:51:34;;;;;;;2.90;1.60;;;5.60;47.00;;;;;;4917819;28;47320;-80
2023/12/20 07:53:59;;;;;;;2.63;1.80;;;5.60;47.00;;;;;;4942863;28;46913;-80
2023/12/20 07:56:25;;;;;;;3.80;2.53;;;5.60;47.30;;;;;;4941294;28;46511;-80
2023/12/20 07:58:50;;;;;;;2.73;2.00;;;5.60;47.60;;;;;;4940245;28;45784;-80
2023/12/20 08:01:18;;;;;;;3.10;2.10;;;5.60;47.80;;;;;;4942589;28;46690;-80
2023/12/20 08:03:43;;;;;;;2.73;1.80;;;5.60;47.70;;;;;;4938764;28;46533;-79
2023/12/20 08:06:09;;;;;;;2.60;2.00;;;5.60;47.60;;;;;;4936718;28;46480;-78
2023/12/20 08:08:34;;;;;;;2.33;1.70;;;5.70;47.60;;;;;;4937005;28;46558;-79
2023/12/20 08:11:00;;;;;;;2.67;2.13;;;5.70;47.40;;;;;;4917998;28;46993;-78
2023/12/20 08:13:27;;;;;;;2.93;2.10;;;5.70;47.40;;;;;;4938703;28;46436;-78
2023/12/20 08:15:53;;;;;;;7.10;4.50;;;5.70;47.50;;;;;;4938633;28;46721;-78
2023/12/20 08:18:19;;;;;;;3.50;2.20;;;5.70;47.60;;;;;;4936213;28;46455;-76
2023/12/20 08:20:45;;;;;;;4.20;3.00;;;5.70;47.80;;;;;;4938647;28;46451;-75
2023/12/20 08:23:10;;;;;;;4.07;2.77;;;5.80;47.50;;;;;;4935848;28;46574;-76
2023/12/20 08:25:36;;;;;;;3.13;2.20;;;5.80;47.30;;;;;;4932242;28;46467;-77
2023/12/20 08:28:03;;;;;;;2.70;1.90;;;5.90;47.40;;;;;;4937083;28;46474;-78
2023/12/20 08:30:29;;;;;;;2.73;2.00;;;5.90;47.40;;;;;;4940313;28;46419;-76
2023/12/20 08:32:55;;;;;;;2.37;1.83;;;5.90;47.30;;;;;;4940277;28;46480;-81
2023/12/20 08:35:20;;;;;;;3.43;2.10;;;6.00;47.30;;;;;;4922547;28;47839;-79
2023/12/20 08:37:46;;;;;;;3.10;2.20;;;6.00;47.30;;;;;;4933927;28;46683;-79
2023/12/20 08:40:12;;;;;;;3.70;2.10;;;6.10;47.30;;;;;;4919932;28;45891;-78
2023/12/20 08:42:37;;;;;;;3.00;2.20;;;6.10;47.10;;;;;;4936345;28;46343;-77
2023/12/20 08:45:04;;;;;;;3.97;2.30;;;6.20;47.20;;;;;;4936549;28;46538;-77
2023/12/20 08:47:29;;;;;;;2.90;2.30;;;6.20;47.00;;;;;;4932905;28;46556;-79
2023/12/20 08:49:56;;;;;;;3.37;2.10;;;6.30;47.20;;;;;;4943769;28;46434;-78
2023/12/20 08:52:23;;;;;;;2.93;2.13;;;6.30;47.30;;;;;;4936756;28;46792;-78
2023/12/20 08:54:51;;;;;;;2.40;1.70;;;6.30;47.20;;;;;;4934744;28;46055;-79
2023/12/20 08:57:18;;;;;;;2.80;2.07;;;6.30;47.30;;;;;;4918664;28;46805;-78
2023/12/20 08:59:43;;;;;;;3.07;2.30;;;6.40;48.40;;;;;;4935338;28;47146;-78
2023/12/20 09:02:09;;;;;;;3.30;2.10;;;6.40;47.30;;;;;;4937205;28;46431;-78
2023/12/20 09:04:35;;;;;;;5.00;3.13;;;6.40;47.40;;;;;;4939662;28;46870;-78
2023/12/20 09:07:01;;;;;;;4.27;2.77;;;6.40;47.50;;;;;;4939717;28;46444;-79
2023/12/20 09:09:26;;;;;;;4.40;2.43;;;6.40;47.50;;;;;;4938846;28;46537;-79
2023/12/20 09:11:52;;;;;;;3.97;2.53;;;6.40;47.60;;;;;;4942444;28;46690;-80
2023/12/20 09:14:17;;;;;;;4.30;3.10;;;6.40;47.60;;;;;;4940138;28;46514;-79
2023/12/20 09:16:43;;;;;;;4.10;3.00;;;6.50;47.70;;;;;;4937599;28;46772;-80
2023/12/20 09:19:09;;;;;;;3.77;3.00;;;6.50;47.60;;;;;;4939924;28;46499;-79
2023/12/20 09:21:34;;;;;;;3.17;2.20;;;6.50;47.50;;;;;;4939890;28;46810;-78
2023/12/20 09:24:00;;;;;;;3.30;2.23;;;6.50;47.60;;;;;;4935921;28;48125;-76
2023/12/20 09:26:25;;;;;;;3.20;2.40;;;6.60;47.70;;;;;;4939030;28;46466;-79
2023/12/20 09:28:51;;;;;;;3.73;2.33;;;6.70;47.60;;;;;;4935639;28;46517;-77
2023/12/20 09:31:17;;;;;;;3.87;2.40;;;6.70;47.40;;;;;;4934921;28;46563;-79
2023/12/20 09:33:42;;;;;;;4.03;2.07;;;6.80;47.40;;;;;;4937943;28;49848;-80
2023/12/20 09:36:08;;;;;;;3.50;2.33;;;6.80;47.50;;;;;;4942204;28;46497;-79
2023/12/20 09:38:34;;;;;;;3.40;2.40;;;6.80;47.60;;;;;;4938715;28;46919;-77
2023/12/20 09:41:02;;;;;;;3.27;2.37;;;6.90;47.40;;;;;;4936297;28;46391;-79
2023/12/20 09:43:29;;;;;;;3.17;2.20;;;6.90;47.40;;;;;;4936781;28;46983;-78
2023/12/20 09:46:00;;;;;;;4.57;2.83;;;6.90;47.50;;;;;;4938464;28;46458;-78
2023/12/20 09:48:27;;;;;;;3.97;2.63;;;7.00;47.40;;;;;;4936001;28;46759;-78
2023/12/20 09:50:53;;;;;;;5.83;2.87;;;7.00;47.30;;;;;;4938740;28;46557;-79
2023/12/20 09:53:19;;;;;;;4.23;2.80;;;7.10;47.40;;;;;;4937000;28;48325;-79
2023/12/20 09:55:45;;;;;;;4.13;2.57;;;7.10;47.50;;;;;;4919312;28;46936;-79
2023/12/20 09:58:11;;;;;;;3.40;2.63;;;7.20;47.40;;;;;;4936483;28;46859;-79
2023/12/20 10:00:36;;;;;;;4.47;2.63;;;7.30;47.20;;;;;;4938929;28;46661;-76
2023/12/20 10:03:03;;;;;;;4.17;2.80;;;7.40;47.00;;;;;;4944475;28;46737;-79
2023/12/20 10:05:33;;;;;;;5.07;2.70;;;7.30;47.20;;;;;;4938039;28;46477;-77
2023/12/20 10:07:59;;;;;;;3.20;2.47;;;7.30;47.50;;;;;;4934082;28;46893;-78
2023/12/20 10:10:26;;;;;;;9.20;2.50;;;7.20;47.70;;;;;;4935369;28;46804;-80
2023/12/20 10:13:11;;;;;;;3.13;2.20;;;7.20;47.80;;;;;;4935116;28;46485;-79
2023/12/20 10:15:37;;;;;;;2.83;2.20;;;7.10;48.20;;;;;;4937587;28;46652;-76
2023/12/20 10:18:04;;;;;;;3.90;2.47;;;7.10;49.60;;;;;;4932190;28;46469;-79
2023/12/20 10:20:31;;;;;;;3.10;1.90;;;7.10;48.30;;;;;;4929580;28;47593;-77
2023/12/20 10:22:57;;;;;;;2.80;1.80;;;7.20;48.20;;;;;;4936088;28;47362;-77
2023/12/20 10:25:24;;;;;;;3.17;1.87;;;7.10;49.00;;;;;;4936080;28;46500;-79
2023/12/20 10:28:08;;;;;;;2.80;1.97;;;7.10;49.40;;;;;;4935624;28;46473;-79
2023/12/20 10:30:34;;;;;;;2.87;1.67;;;7.10;49.40;;;;;;4919593;28;47043;-78
2023/12/20 10:32:59;;;;;;;4.43;2.03;;;7.10;49.20;;;;;;4936948;28;47180;-79
2023/12/20 10:35:25;;;;;;;2.20;1.60;;;7.00;50.00;;;;;;4936230;28;46691;-80
2023/12/20 10:37:56;;;;;;;2.53;1.73;;;7.10;50.20;;;;;;4937094;28;46512;-79
2023/12/20 10:40:22;;;;;;;3.67;2.17;;;6.90;50.00;;;;;;4938110;28;46803;-81
2023/12/20 10:42:48;;;;;;;2.70;1.70;;;7.10;50.80;;;;;;4934934;28;49750;-80
2023/12/20 10:45:15;;;;;;;3.13;2.03;;;7.10;50.20;;;;;;4939798;28;46528;-78
2023/12/20 10:47:42;;;;;;;4.70;2.20;;;6.90;51.50;;;;;;4939290;28;46049;-79
2023/12/20 10:50:08;;;;;;;3.93;2.00;;;6.90;51.60;;;;;;4936910;28;46517;-81
2023/12/20 10:52:35;;;;;;;2.80;2.10;;;7.00;52.10;;;;;;4936062;28;46358;-80
2023/12/20 10:55:01;;;;;;;4.90;2.50;;;7.10;51.70;;;;;;4935425;28;46415;-80
2023/12/20 10:57:28;;;;;;;4.87;1.77;;;7.20;51.40;;;;;;4922405;28;46352;-80
2023/12/20 10:59:54;;;;;;;10.10;4.90;;;7.40;50.60;;;;;;4935141;28;47026;-80
2023/12/20 11:02:20;;;;;;;3.60;2.10;;;7.30;51.20;;;;;;4937641;28;47026;-80
2023/12/20 11:05:09;;;;;;;3.93;1.97;;;7.40;50.40;;;;;;4938144;28;45920;-80
2023/12/20 11:07:49;;;;;;;4.23;2.80;;;7.60;50.50;;;;;;4936860;28;46537;-80
2023/12/20 11:10:26;;;;;;;2.40;1.53;;;7.70;50.60;;;;;;4920886;28;46600;-80
2023/12/20 11:12:58;;;;;;;3.37;2.27;;;7.70;50.30;;;;;;4939946;28;47072;-81
2023/12/20 11:15:24;;;;;;;2.60;1.60;;;7.70;50.20;;;;;;4940515;28;47290;-81
2023/12/20 11:17:57;;;;;;;4.53;2.40;;;7.70;50.60;;;;;;4935165;28;46510;-78
2023/12/20 11:20:23;;;;;;;3.40;2.20;;;7.60;50.50;;;;;;4936209;28;46495;-78
2023/12/20 11:22:56;;;;;;;4.67;2.10;;;7.60;50.60;;;;;;4934185;28;48472;-77
2023/12/20 11:25:21;;;;;;;3.20;1.60;;;7.70;50.40;;;;;;4937407;28;46930;-79
2023/12/20 11:28:11;;;;;;;4.83;1.40;;;7.60;50.30;;;;;;4934236;28;47073;-76
2023/12/20 11:30:47;;;;;;;2.50;1.57;;;7.40;50.50;;;;;;4936551;28;47086;-77
2023/12/20 11:33:16;;;;;;;1.97;1.30;;;7.50;50.50;;;;;;4939953;28;46487;-77
2023/12/20 11:35:43;;;;;;;2.03;1.53;;;7.50;50.50;;;;;;4923074;28;45873;-76
2023/12/20 11:38:10;;;;;;;2.00;1.33;;;7.40;51.60;;;;;;4933988;28;46437;-78
2023/12/20 11:40:36;;;;;;;3.17;1.23;;;7.40;50.40;;;;;;4936657;28;45834;-78
2023/12/20 11:43:02;;;;;;;2.67;1.40;;;7.20;50.20;;;;;;4934423;28;47412;-76
2023/12/20 11:45:28;;;;;;;3.07;1.77;;;7.10;51.30;;;;;;4937629;28;46518;-78
2023/12/20 11:47:54;;;;;;;2.57;1.60;;;7.00;51.60;;;;;;4936269;28;46784;-76
2023/12/20 11:50:21;;;;;;;4.03;1.40;;;7.00;52.30;;;;;;4936184;28;46667;-78
2023/12/20 11:52:48;;;;;;;3.50;1.40;;;7.00;52.70;;;;;;4935909;28;47663;-78
2023/12/20 11:55:13;;;;;;;1.90;1.20;;;7.00;53.00;;;;;;4937563;28;46641;-79
2023/12/20 11:57:39;;;;;;;1.87;1.43;;;6.90;53.10;;;;;;4940478;28;46777;-83
2023/12/20 12:00:06;;;;;;;2.10;1.30;;;7.00;53.40;;;;;;4936359;28;45867;-77
2023/12/20 12:02:32;;;;;;;2.67;1.33;;;7.00;53.70;;;;;;4938235;28;47975;-81
2023/12/20 12:04:58;;;;;;;1.77;1.00;;;7.10;53.40;;;;;;4934864;28;46499;-76
2023/12/20 12:07:24;;;;;;;2.43;1.43;;;7.10;53.70;;;;;;4936330;28;46493;-78
2023/12/20 12:09:49;;;;;;;1.40;1.00;;;7.00;54.20;;;;;;4934643;28;46747;-79
2023/12/20 12:12:15;;;;;;;2.20;1.23;;;7.00;54.60;;;;;;4937509;28;46600;-79
2023/12/20 12:14:41;;;;;;;1.63;1.00;;;6.90;55.00;;;;;;4921246;28;46956;-78
2023/12/20 12:17:13;;;;;;;3.07;1.27;;;6.80;55.40;;;;;;4933618;28;46741;-80
2023/12/20 12:19:43;;;;;;;2.07;1.00;;;6.70;56.20;;;;;;4937322;28;46488;-78
2023/12/20 12:22:12;;;;;;;1.77;1.03;;;6.70;56.70;;;;;;4936179;28;46524;-78
2023/12/20 12:24:39;;;;;;;2.50;1.00;;;6.70;56.80;;;;;;4935232;28;46664;-77
2023/12/20 12:27:08;;;;;;;2.07;1.17;;;6.40;56.30;;;;;;4936452;28;46434;-77
2023/12/20 12:29:35;;;;;;;1.93;1.10;;;6.20;56.20;;;;;;4938375;28;46780;-79
2023/12/20 12:32:01;;;;;;;3.40;1.40;;;5.90;56.50;;;;;;4919420;28;48145;-79
2023/12/20 12:34:30;;;;;;;1.70;1.10;;;5.90;56.80;;;;;;4939800;28;46499;-78
2023/12/20 12:36:57;;;;;;;2.70;1.20;;;5.90;56.50;;;;;;4937655;28;46453;-76
2023/12/20 12:39:27;;;;;;;1.30;0.90;;;6.00;56.00;;;;;;4940590;28;46686;-77
2023/12/20 12:41:53;;;;;;;1.30;0.83;;;6.00;55.40;;;;;;4921835;28;48366;-79
2023/12/20 12:44:19;;;;;;;1.70;1.00;;;6.10;55.20;;;;;;4939359;28;47040;-77
2023/12/20 12:46:46;;;;;;;1.73;1.10;;;6.10;55.00;;;;;;4937109;28;46800;-78
2023/12/20 12:49:12;;;;;;;1.87;0.90;;;6.10;54.70;;;;;;4937615;28;46888;-79
2023/12/20 12:51:38;;;;;;;3.73;1.10;;;6.10;54.70;;;;;;4940896;28;46960;-77
2023/12/20 12:54:04;;;;;;;1.80;1.20;;;6.20;54.60;;;;;;4941134;28;46510;-79